sensor_id;sensor_type;location;lat;lon;timestamp;temperature;humidity
65858;SHT31;53776;47.242;18.674;2022-09-29T00:00:23;14.10;86.71
65858;SHT31;53776;47.242;18.674;2022-09-29T00:02:48;14.09;86.76
65858;SHT31;53776;47.242;18.674;2022-09-29T00:05:14;14.10;86.72
65858;SHT31;53776;47.242;18.674;2022-09-29T00:07:39;14.09;86.73
65858;SHT31;53776;47.242;18.674;2022-09-29T00:10:05;14.08;86.65
65858;SHT31;53776;47.242;18.674;2022-09-29T00:12:30;14.10;86.58
65858;SHT31;53776;47.242;18.674;2022-09-29T00:14:56;14.09;86.53
65858;SHT31;53776;47.242;18.674;2022-09-29T00:17:21;14.09;86.52
65858;SHT31;53776;47.242;18.674;2022-09-29T00:19:47;13.99;86.66
65858;SHT31;53776;47.242;18.674;2022-09-29T00:22:12;14.01;86.71
65858;SHT31;53776;47.242;18.674;2022-09-29T00:24:38;13.99;86.71
65858;SHT31;53776;47.242;18.674;2022-09-29T00:27:03;13.95;86.57
65858;SHT31;53776;47.242;18.674;2022-09-29T00:29:28;13.95;86.78
65858;SHT31;53776;47.242;18.674;2022-09-29T00:31:54;13.94;86.86
65858;SHT31;53776;47.242;18.674;2022-09-29T00:34:19;13.96;86.73
65858;SHT31;53776;47.242;18.674;2022-09-29T00:36:45;13.89;86.86
65858;SHT31;53776;47.242;18.674;2022-09-29T00:39:10;13.92;86.81
65858;SHT31;53776;47.242;18.674;2022-09-29T00:41:38;13.90;86.87
65858;SHT31;53776;47.242;18.674;2022-09-29T00:46:45;13.90;86.95
65858;SHT31;53776;47.242;18.674;2022-09-29T00:54:18;13.94;86.86
65858;SHT31;53776;47.242;18.674;2022-09-29T00:56:45;13.94;86.92
65858;SHT31;53776;47.242;18.674;2022-09-29T00:59:14;13.89;86.90
65858;SHT31;53776;47.242;18.674;2022-09-29T01:01:40;13.92;86.72
65858;SHT31;53776;47.242;18.674;2022-09-29T01:04:09;13.87;86.89
65858;SHT31;53776;47.242;18.674;2022-09-29T01:06:42;13.85;86.98
65858;SHT31;53776;47.242;18.674;2022-09-29T01:09:12;13.87;86.90
65858;SHT31;53776;47.242;18.674;2022-09-29T01:11:37;13.87;86.76
65858;SHT31;53776;47.242;18.674;2022-09-29T01:14:06;13.86;86.78
65858;SHT31;53776;47.242;18.674;2022-09-29T01:16:33;13.87;86.88
65858;SHT31;53776;47.242;18.674;2022-09-29T01:19:01;13.86;86.92
65858;SHT31;53776;47.242;18.674;2022-09-29T01:27:21;13.85;86.95
65858;SHT31;53776;47.242;18.674;2022-09-29T01:38:34;13.83;86.95
65858;SHT31;53776;47.242;18.674;2022-09-29T01:41:15;13.86;86.91
65858;SHT31;53776;47.242;18.674;2022-09-29T01:46:22;13.83;86.94
65858;SHT31;53776;47.242;18.674;2022-09-29T01:48:52;13.83;87.00
65858;SHT31;53776;47.242;18.674;2022-09-29T01:51:22;13.89;87.00
65858;SHT31;53776;47.242;18.674;2022-09-29T01:53:52;13.95;86.97
65858;SHT31;53776;47.242;18.674;2022-09-29T01:56:27;13.94;86.98
65858;SHT31;53776;47.242;18.674;2022-09-29T01:59:11;13.95;86.98
65858;SHT31;53776;47.242;18.674;2022-09-29T02:01:41;13.99;86.90
65858;SHT31;53776;47.242;18.674;2022-09-29T02:04:16;13.98;86.72
65858;SHT31;53776;47.242;18.674;2022-09-29T02:06:47;14.05;86.75
65858;SHT31;53776;47.242;18.674;2022-09-29T02:09:21;14.01;86.81
65858;SHT31;53776;47.242;18.674;2022-09-29T02:11:50;14.02;86.81
65858;SHT31;53776;47.242;18.674;2022-09-29T02:14:26;14.02;86.87
65858;SHT31;53776;47.242;18.674;2022-09-29T02:17:09;14.01;87.01
65858;SHT31;53776;47.242;18.674;2022-09-29T02:19:39;14.05;87.05
65858;SHT31;53776;47.242;18.674;2022-09-29T02:22:06;14.06;87.03
65858;SHT31;53776;47.242;18.674;2022-09-29T02:24:32;14.03;87.16
65858;SHT31;53776;47.242;18.674;2022-09-29T02:26:57;14.12;87.01
65858;SHT31;53776;47.242;18.674;2022-09-29T02:29:23;14.10;87.05
65858;SHT31;53776;47.242;18.674;2022-09-29T02:31:48;14.15;87.06
65858;SHT31;53776;47.242;18.674;2022-09-29T02:34:16;14.10;87.13
65858;SHT31;53776;47.242;18.674;2022-09-29T02:37:04;14.20;87.09
65858;SHT31;53776;47.242;18.674;2022-09-29T02:39:45;14.20;87.01
65858;SHT31;53776;47.242;18.674;2022-09-29T02:48:14;14.10;87.19
65858;SHT31;53776;47.242;18.674;2022-09-29T02:53:51;14.05;87.29
65858;SHT31;53776;47.242;18.674;2022-09-29T02:56:46;14.09;87.28
65858;SHT31;53776;47.242;18.674;2022-09-29T02:59:25;14.08;87.27
65858;SHT31;53776;47.242;18.674;2022-09-29T03:01:54;14.09;87.29
65858;SHT31;53776;47.242;18.674;2022-09-29T03:04:23;14.05;87.35
65858;SHT31;53776;47.242;18.674;2022-09-29T03:06:49;14.03;87.35
65858;SHT31;53776;47.242;18.674;2022-09-29T03:09:14;14.01;87.51
65858;SHT31;53776;47.242;18.674;2022-09-29T03:11:40;13.98;87.63
65858;SHT31;53776;47.242;18.674;2022-09-29T03:14:05;13.99;87.69
65858;SHT31;53776;47.242;18.674;2022-09-29T03:16:32;13.86;88.09
65858;SHT31;53776;47.242;18.674;2022-09-29T03:18:58;13.79;88.37
65858;SHT31;53776;47.242;18.674;2022-09-29T03:21:23;13.72;88.73
65858;SHT31;53776;47.242;18.674;2022-09-29T03:23:48;13.65;89.04
65858;SHT31;53776;47.242;18.674;2022-09-29T03:26:14;13.61;89.23
65858;SHT31;53776;47.242;18.674;2022-09-29T03:28:39;13.64;89.12
65858;SHT31;53776;47.242;18.674;2022-09-29T03:31:09;13.58;89.36
65858;SHT31;53776;47.242;18.674;2022-09-29T03:33:35;13.53;89.45
65858;SHT31;53776;47.242;18.674;2022-09-29T03:36:03;13.53;89.56
65858;SHT31;53776;47.242;18.674;2022-09-29T03:38:30;13.51;89.51
65858;SHT31;53776;47.242;18.674;2022-09-29T03:40:55;13.45;89.52
65858;SHT31;53776;47.242;18.674;2022-09-29T03:43:21;13.43;89.55
65858;SHT31;53776;47.242;18.674;2022-09-29T03:45:50;13.34;89.45
65858;SHT31;53776;47.242;18.674;2022-09-29T03:48:17;13.37;89.54
65858;SHT31;53776;47.242;18.674;2022-09-29T03:50:46;13.30;89.56
65858;SHT31;53776;47.242;18.674;2022-09-29T03:53:12;13.27;89.62
65858;SHT31;53776;47.242;18.674;2022-09-29T03:55:39;13.28;89.61
65858;SHT31;53776;47.242;18.674;2022-09-29T03:58:04;13.26;89.62
65858;SHT31;53776;47.242;18.674;2022-09-29T04:00:30;13.23;89.60
65858;SHT31;53776;47.242;18.674;2022-09-29T04:02:56;13.28;89.39
65858;SHT31;53776;47.242;18.674;2022-09-29T04:05:22;13.30;89.37
65858;SHT31;53776;47.242;18.674;2022-09-29T04:07:48;13.27;89.54
65858;SHT31;53776;47.242;18.674;2022-09-29T04:10:14;13.33;89.47
65858;SHT31;53776;47.242;18.674;2022-09-29T04:12:39;13.37;89.41
65858;SHT31;53776;47.242;18.674;2022-09-29T04:15:05;13.38;89.47
65858;SHT31;53776;47.242;18.674;2022-09-29T04:17:31;13.38;89.39
65858;SHT31;53776;47.242;18.674;2022-09-29T04:19:56;13.36;88.84
65858;SHT31;53776;47.242;18.674;2022-09-29T04:22:22;13.28;88.98
65858;SHT31;53776;47.242;18.674;2022-09-29T04:24:47;13.23;88.92
65858;SHT31;53776;47.242;18.674;2022-09-29T04:27:14;13.18;89.19
65858;SHT31;53776;47.242;18.674;2022-09-29T04:29:39;13.13;89.28
65858;SHT31;53776;47.242;18.674;2022-09-29T04:32:05;13.13;89.34
65858;SHT31;53776;47.242;18.674;2022-09-29T04:34:31;13.09;89.42
65858;SHT31;53776;47.242;18.674;2022-09-29T04:36:57;13.09;89.37
65858;SHT31;53776;47.242;18.674;2022-09-29T04:39:23;13.13;89.22
65858;SHT31;53776;47.242;18.674;2022-09-29T04:41:48;13.03;89.36
65858;SHT31;53776;47.242;18.674;2022-09-29T04:44:14;13.07;89.46
65858;SHT31;53776;47.242;18.674;2022-09-29T04:46:39;13.03;89.39
65858;SHT31;53776;47.242;18.674;2022-09-29T04:49:04;13.09;89.49
65858;SHT31;53776;47.242;18.674;2022-09-29T04:51:30;13.10;89.20
65858;SHT31;53776;47.242;18.674;2022-09-29T04:53:57;13.11;89.20
65858;SHT31;53776;47.242;18.674;2022-09-29T04:56:23;13.09;88.78
65858;SHT31;53776;47.242;18.674;2022-09-29T04:58:49;13.04;88.98
65858;SHT31;53776;47.242;18.674;2022-09-29T05:01:15;12.95;89.03
65858;SHT31;53776;47.242;18.674;2022-09-29T05:03:41;12.88;88.87
65858;SHT31;53776;47.242;18.674;2022-09-29T05:06:08;12.78;88.96
65858;SHT31;53776;47.242;18.674;2022-09-29T05:08:34;12.75;88.76
65858;SHT31;53776;47.242;18.674;2022-09-29T05:11:06;12.72;88.41
65858;SHT31;53776;47.242;18.674;2022-09-29T05:13:32;12.60;88.07
65858;SHT31;53776;47.242;18.674;2022-09-29T05:15:58;12.45;88.00
65858;SHT31;53776;47.242;18.674;2022-09-29T05:18:24;12.37;88.10
65858;SHT31;53776;47.242;18.674;2022-09-29T05:20:49;12.28;88.52
65858;SHT31;53776;47.242;18.674;2022-09-29T05:23:15;12.27;88.90
65858;SHT31;53776;47.242;18.674;2022-09-29T05:25:40;12.24;89.20
65858;SHT31;53776;47.242;18.674;2022-09-29T05:28:08;12.25;89.12
65858;SHT31;53776;47.242;18.674;2022-09-29T05:30:35;12.27;89.37
65858;SHT31;53776;47.242;18.674;2022-09-29T05:33:00;12.31;89.46
65858;SHT31;53776;47.242;18.674;2022-09-29T05:35:25;12.31;89.34
65858;SHT31;53776;47.242;18.674;2022-09-29T05:37:51;12.31;89.22
65858;SHT31;53776;47.242;18.674;2022-09-29T05:40:16;12.40;89.16
65858;SHT31;53776;47.242;18.674;2022-09-29T05:42:44;12.38;88.37
65858;SHT31;53776;47.242;18.674;2022-09-29T05:45:09;12.40;88.41
65858;SHT31;53776;47.242;18.674;2022-09-29T05:47:39;12.34;88.63
65858;SHT31;53776;47.242;18.674;2022-09-29T05:50:05;12.28;88.79
65858;SHT31;53776;47.242;18.674;2022-09-29T05:52:31;12.40;88.85
65858;SHT31;53776;47.242;18.674;2022-09-29T05:54:56;12.38;88.48
65858;SHT31;53776;47.242;18.674;2022-09-29T05:57:22;12.45;87.97
65858;SHT31;53776;47.242;18.674;2022-09-29T05:59:47;12.42;87.82
65858;SHT31;53776;47.242;18.674;2022-09-29T06:02:12;12.38;87.77
65858;SHT31;53776;47.242;18.674;2022-09-29T06:04:38;12.37;87.85
65858;SHT31;53776;47.242;18.674;2022-09-29T06:07:03;12.35;88.06
65858;SHT31;53776;47.242;18.674;2022-09-29T06:09:29;12.37;88.18
65858;SHT31;53776;47.242;18.674;2022-09-29T06:11:54;12.38;88.42
65858;SHT31;53776;47.242;18.674;2022-09-29T06:14:19;12.42;88.57
65858;SHT31;53776;47.242;18.674;2022-09-29T06:16:45;12.51;88.58
65858;SHT31;53776;47.242;18.674;2022-09-29T06:19:10;12.62;88.48
65858;SHT31;53776;47.242;18.674;2022-09-29T06:21:36;12.55;88.45
65858;SHT31;53776;47.242;18.674;2022-09-29T06:24:02;12.60;88.38
65858;SHT31;53776;47.242;18.674;2022-09-29T06:26:28;12.55;88.27
65858;SHT31;53776;47.242;18.674;2022-09-29T06:28:54;12.66;88.04
65858;SHT31;53776;47.242;18.674;2022-09-29T06:31:22;12.70;87.80
65858;SHT31;53776;47.242;18.674;2022-09-29T06:33:48;12.79;87.82
65858;SHT31;53776;47.242;18.674;2022-09-29T06:36:22;13.03;87.17
65858;SHT31;53776;47.242;18.674;2022-09-29T06:39:10;13.14;86.88
65858;SHT31;53776;47.242;18.674;2022-09-29T06:41:35;13.21;86.88
65858;SHT31;53776;47.242;18.674;2022-09-29T06:44:01;13.28;86.08
65858;SHT31;53776;47.242;18.674;2022-09-29T06:46:27;13.37;86.37
65858;SHT31;53776;47.242;18.674;2022-09-29T06:48:53;13.54;85.89
65858;SHT31;53776;47.242;18.674;2022-09-29T06:51:20;13.50;86.52
65858;SHT31;53776;47.242;18.674;2022-09-29T06:53:49;13.65;85.85
65858;SHT31;53776;47.242;18.674;2022-09-29T06:56:15;13.78;85.98
65858;SHT31;53776;47.242;18.674;2022-09-29T06:58:40;13.89;86.08
65858;SHT31;53776;47.242;18.674;2022-09-29T07:01:06;13.85;86.22
65858;SHT31;53776;47.242;18.674;2022-09-29T07:03:33;13.92;86.27
65858;SHT31;53776;47.242;18.674;2022-09-29T07:06:07;13.95;85.30
65858;SHT31;53776;47.242;18.674;2022-09-29T07:08:33;13.89;85.39
65858;SHT31;53776;47.242;18.674;2022-09-29T07:11:06;13.82;85.40
65858;SHT31;53776;47.242;18.674;2022-09-29T07:13:33;13.85;84.97
65858;SHT31;53776;47.242;18.674;2022-09-29T07:16:06;13.86;84.63
65858;SHT31;53776;47.242;18.674;2022-09-29T07:18:36;14.01;84.58
65858;SHT31;53776;47.242;18.674;2022-09-29T07:21:03;14.15;85.11
65858;SHT31;53776;47.242;18.674;2022-09-29T07:23:29;14.32;85.33
65858;SHT31;53776;47.242;18.674;2022-09-29T07:25:55;14.47;84.97
65858;SHT31;53776;47.242;18.674;2022-09-29T07:28:21;14.60;83.60
65858;SHT31;53776;47.242;18.674;2022-09-29T07:30:46;14.61;83.55
65858;SHT31;53776;47.242;18.674;2022-09-29T07:33:21;14.64;83.95
65858;SHT31;53776;47.242;18.674;2022-09-29T07:35:51;14.88;83.99
65858;SHT31;53776;47.242;18.674;2022-09-29T07:38:17;15.23;82.04
65858;SHT31;53776;47.242;18.674;2022-09-29T07:40:42;15.40;83.00
65858;SHT31;53776;47.242;18.674;2022-09-29T07:43:07;15.74;81.29
65858;SHT31;53776;47.242;18.674;2022-09-29T07:45:33;15.88;81.02
65858;SHT31;53776;47.242;18.674;2022-09-29T07:47:58;15.91;80.76
65858;SHT31;53776;47.242;18.674;2022-09-29T07:50:23;16.22;78.94
65858;SHT31;53776;47.242;18.674;2022-09-29T07:52:50;17.69;76.98
65858;SHT31;53776;47.242;18.674;2022-09-29T07:55:15;17.92;75.36
65858;SHT31;53776;47.242;18.674;2022-09-29T07:57:41;17.44;74.66
65858;SHT31;53776;47.242;18.674;2022-09-29T08:00:07;16.79;76.73
65858;SHT31;53776;47.242;18.674;2022-09-29T08:02:33;16.49;77.20
65858;SHT31;53776;47.242;18.674;2022-09-29T08:04:58;16.48;77.05
65858;SHT31;53776;47.242;18.674;2022-09-29T08:07:23;16.45;78.16
65858;SHT31;53776;47.242;18.674;2022-09-29T08:09:49;16.36;77.64
65858;SHT31;53776;47.242;18.674;2022-09-29T08:12:14;15.97;78.49
65858;SHT31;53776;47.242;18.674;2022-09-29T08:14:39;15.70;78.14
65858;SHT31;53776;47.242;18.674;2022-09-29T08:17:05;15.57;78.44
65858;SHT31;53776;47.242;18.674;2022-09-29T08:19:30;15.54;80.50
65858;SHT31;53776;47.242;18.674;2022-09-29T08:21:56;15.69;79.82
65858;SHT31;53776;47.242;18.674;2022-09-29T08:24:21;15.63;79.49
65858;SHT31;53776;47.242;18.674;2022-09-29T08:26:47;16.79;77.44
65858;SHT31;53776;47.242;18.674;2022-09-29T08:29:13;17.49;75.52
65858;SHT31;53776;47.242;18.674;2022-09-29T08:31:39;17.89;72.81
65858;SHT31;53776;47.242;18.674;2022-09-29T08:34:05;18.12;72.68
65858;SHT31;53776;47.242;18.674;2022-09-29T08:36:30;17.94;72.11
65858;SHT31;53776;47.242;18.674;2022-09-29T08:38:56;17.86;72.38
65858;SHT31;53776;47.242;18.674;2022-09-29T08:47:00;17.48;76.43
65858;SHT31;53776;47.242;18.674;2022-09-29T08:49:50;17.45;75.73
65858;SHT31;53776;47.242;18.674;2022-09-29T08:52:20;17.46;75.00
65858;SHT31;53776;47.242;18.674;2022-09-29T08:54:49;17.49;73.59
65858;SHT31;53776;47.242;18.674;2022-09-29T08:57:17;17.25;73.32
65858;SHT31;53776;47.242;18.674;2022-09-29T08:59:45;16.87;76.12
65858;SHT31;53776;47.242;18.674;2022-09-29T09:02:35;16.63;74.53
65858;SHT31;53776;47.242;18.674;2022-09-29T09:10:45;16.75;75.91
65858;SHT31;53776;47.242;18.674;2022-09-29T09:22:20;17.93;74.13
65858;SHT31;53776;47.242;18.674;2022-09-29T09:24:57;17.85;71.48
65858;SHT31;53776;47.242;18.674;2022-09-29T09:27:43;18.18;71.77
65858;SHT31;53776;47.242;18.674;2022-09-29T09:30:17;18.31;73.33
65858;SHT31;53776;47.242;18.674;2022-09-29T09:32:56;18.41;72.64
65858;SHT31;53776;47.242;18.674;2022-09-29T09:35:40;18.55;70.44
65858;SHT31;53776;47.242;18.674;2022-09-29T09:38:16;18.40;72.76
65858;SHT31;53776;47.242;18.674;2022-09-29T09:40:46;18.96;73.39
65858;SHT31;53776;47.242;18.674;2022-09-29T09:43:17;19.22;68.67
65858;SHT31;53776;47.242;18.674;2022-09-29T09:45:59;19.20;69.70
65858;SHT31;53776;47.242;18.674;2022-09-29T09:48:36;19.30;71.08
65858;SHT31;53776;47.242;18.674;2022-09-29T09:54:03;19.54;66.51
65858;SHT31;53776;47.242;18.674;2022-09-29T09:56:50;19.54;65.09
65858;SHT31;53776;47.242;18.674;2022-09-29T09:59:30;19.53;64.97
65858;SHT31;53776;47.242;18.674;2022-09-29T10:01:58;19.53;64.15
65858;SHT31;53776;47.242;18.674;2022-09-29T10:04:24;19.57;66.67
65858;SHT31;53776;47.242;18.674;2022-09-29T10:06:50;19.63;63.28
65858;SHT31;53776;47.242;18.674;2022-09-29T10:09:16;19.71;63.40
65858;SHT31;53776;47.242;18.674;2022-09-29T10:11:42;19.89;64.41
65858;SHT31;53776;47.242;18.674;2022-09-29T10:14:23;20.11;62.11
65858;SHT31;53776;47.242;18.674;2022-09-29T10:19:21;20.40;63.46
65858;SHT31;53776;47.242;18.674;2022-09-29T10:21:47;20.22;64.08
65858;SHT31;53776;47.242;18.674;2022-09-29T10:24:28;20.22;64.71
65858;SHT31;53776;47.242;18.674;2022-09-29T10:26:57;20.18;64.16
65858;SHT31;53776;47.242;18.674;2022-09-29T10:29:37;20.29;64.50
65858;SHT31;53776;47.242;18.674;2022-09-29T10:32:05;19.99;63.59
65858;SHT31;53776;47.242;18.674;2022-09-29T10:34:33;20.35;62.82
65858;SHT31;53776;47.242;18.674;2022-09-29T10:37:05;20.37;61.72
65858;SHT31;53776;47.242;18.674;2022-09-29T10:39:45;20.09;63.54
65858;SHT31;53776;47.242;18.674;2022-09-29T10:42:19;20.08;64.05
65858;SHT31;53776;47.242;18.674;2022-09-29T10:47:27;19.79;64.80
65858;SHT31;53776;47.242;18.674;2022-09-29T10:50:15;20.14;63.60
65858;SHT31;53776;47.242;18.674;2022-09-29T10:52:41;19.73;63.83
65858;SHT31;53776;47.242;18.674;2022-09-29T10:55:15;19.39;62.94
65858;SHT31;53776;47.242;18.674;2022-09-29T10:57:44;19.64;64.55
65858;SHT31;53776;47.242;18.674;2022-09-29T11:00:33;19.54;63.13
65858;SHT31;53776;47.242;18.674;2022-09-29T11:03:15;19.47;63.50
65858;SHT31;53776;47.242;18.674;2022-09-29T11:06:05;19.47;65.69
65858;SHT31;53776;47.242;18.674;2022-09-29T11:08:32;19.39;65.99
65858;SHT31;53776;47.242;18.674;2022-09-29T11:11:16;19.36;65.27
65858;SHT31;53776;47.242;18.674;2022-09-29T11:13:44;19.20;65.16
65858;SHT31;53776;47.242;18.674;2022-09-29T11:16:31;18.98;65.91
65858;SHT31;53776;47.242;18.674;2022-09-29T11:19:04;18.95;67.37
65858;SHT31;53776;47.242;18.674;2022-09-29T11:24:25;18.69;69.18
65858;SHT31;53776;47.242;18.674;2022-09-29T11:29:36;18.14;68.58
65858;SHT31;53776;47.242;18.674;2022-09-29T11:45:44;17.96;72.03
65858;SHT31;53776;47.242;18.674;2022-09-29T12:04:16;18.18;72.20
65858;SHT31;53776;47.242;18.674;2022-09-29T12:06:49;18.36;71.95
65858;SHT31;53776;47.242;18.674;2022-09-29T12:12:12;18.76;70.79
65858;SHT31;53776;47.242;18.674;2022-09-29T12:17:28;18.65;70.48
65858;SHT31;53776;47.242;18.674;2022-09-29T12:20:05;18.30;69.60
65858;SHT31;53776;47.242;18.674;2022-09-29T12:22:31;18.52;70.62
65858;SHT31;53776;47.242;18.674;2022-09-29T12:24:58;18.54;71.03
65858;SHT31;53776;47.242;18.674;2022-09-29T12:30:20;18.51;71.81
65858;SHT31;53776;47.242;18.674;2022-09-29T12:32:55;18.71;70.64
65858;SHT31;53776;47.242;18.674;2022-09-29T12:35:36;18.67;70.10
65858;SHT31;53776;47.242;18.674;2022-09-29T12:38:16;18.54;71.17
65858;SHT31;53776;47.242;18.674;2022-09-29T12:43:57;19.08;69.93
65858;SHT31;53776;47.242;18.674;2022-09-29T12:46:31;18.99;69.00
65858;SHT31;53776;47.242;18.674;2022-09-29T12:49:08;19.19;69.01
65858;SHT31;53776;47.242;18.674;2022-09-29T12:51:41;18.99;68.24
65858;SHT31;53776;47.242;18.674;2022-09-29T12:54:21;19.30;69.95
65858;SHT31;53776;47.242;18.674;2022-09-29T12:57:03;19.75;67.69
65858;SHT31;53776;47.242;18.674;2022-09-29T13:03:00;18.88;67.59
65858;SHT31;53776;47.242;18.674;2022-09-29T13:05:47;19.08;68.24
65858;SHT31;53776;47.242;18.674;2022-09-29T13:08:40;19.34;66.20
65858;SHT31;53776;47.242;18.674;2022-09-29T13:11:35;19.49;66.29
65858;SHT31;53776;47.242;18.674;2022-09-29T13:29:50;17.94;71.64
65858;SHT31;53776;47.242;18.674;2022-09-29T13:32:17;17.79;70.58
65858;SHT31;53776;47.242;18.674;2022-09-29T13:35:01;17.68;71.76
65858;SHT31;53776;47.242;18.674;2022-09-29T13:37:41;17.78;71.46
65858;SHT31;53776;47.242;18.674;2022-09-29T13:40:07;17.63;72.03
65858;SHT31;53776;47.242;18.674;2022-09-29T13:42:49;17.56;71.53
65858;SHT31;53776;47.242;18.674;2022-09-29T13:47:46;17.81;70.64
65858;SHT31;53776;47.242;18.674;2022-09-29T13:50:41;17.62;71.89
65858;SHT31;53776;47.242;18.674;2022-09-29T13:55:49;17.61;72.34
65858;SHT31;53776;47.242;18.674;2022-09-29T13:58:31;17.72;71.29
65858;SHT31;53776;47.242;18.674;2022-09-29T14:00:59;17.85;70.79
65858;SHT31;53776;47.242;18.674;2022-09-29T14:03:32;17.85;70.59
65858;SHT31;53776;47.242;18.674;2022-09-29T14:06:11;17.69;70.47
65858;SHT31;53776;47.242;18.674;2022-09-29T14:08:59;17.62;72.23
65858;SHT31;53776;47.242;18.674;2022-09-29T14:11:34;17.54;72.88
65858;SHT31;53776;47.242;18.674;2022-09-29T14:19:30;17.41;73.84
65858;SHT31;53776;47.242;18.674;2022-09-29T14:22:00;17.30;73.30
65858;SHT31;53776;47.242;18.674;2022-09-29T14:29:43;17.04;73.94
65858;SHT31;53776;47.242;18.674;2022-09-29T14:32:19;17.34;73.08
65858;SHT31;53776;47.242;18.674;2022-09-29T14:34:47;17.54;72.97
65858;SHT31;53776;47.242;18.674;2022-09-29T14:37:20;17.79;71.94
65858;SHT31;53776;47.242;18.674;2022-09-29T14:39:48;18.33;70.56
65858;SHT31;53776;47.242;18.674;2022-09-29T14:42:34;18.40;68.71
65858;SHT31;53776;47.242;18.674;2022-09-29T14:45:01;18.61;69.22
65858;SHT31;53776;47.242;18.674;2022-09-29T14:50:47;18.41;67.97
65858;SHT31;53776;47.242;18.674;2022-09-29T14:53:38;18.37;67.91
65858;SHT31;53776;47.242;18.674;2022-09-29T15:01:29;17.87;69.54
65858;SHT31;53776;47.242;18.674;2022-09-29T15:03:58;17.79;69.55
65858;SHT31;53776;47.242;18.674;2022-09-29T15:06:29;17.62;69.99
65858;SHT31;53776;47.242;18.674;2022-09-29T15:11:32;17.63;70.05
65858;SHT31;53776;47.242;18.674;2022-09-29T15:14:25;17.65;70.72
65858;SHT31;53776;47.242;18.674;2022-09-29T15:25:19;17.39;71.67
65858;SHT31;53776;47.242;18.674;2022-09-29T15:27:49;17.28;72.94
65858;SHT31;53776;47.242;18.674;2022-09-29T15:30:17;17.17;73.57
65858;SHT31;53776;47.242;18.674;2022-09-29T15:32:45;17.03;73.90
65858;SHT31;53776;47.242;18.674;2022-09-29T15:35:16;16.87;74.69
65858;SHT31;53776;47.242;18.674;2022-09-29T15:40:14;16.72;75.27
65858;SHT31;53776;47.242;18.674;2022-09-29T15:42:40;16.63;75.78
65858;SHT31;53776;47.242;18.674;2022-09-29T15:45:16;16.66;75.87
65858;SHT31;53776;47.242;18.674;2022-09-29T15:47:42;16.62;76.31
65858;SHT31;53776;47.242;18.674;2022-09-29T15:50:19;16.59;76.62
65858;SHT31;53776;47.242;18.674;2022-09-29T15:52:46;16.59;76.37
65858;SHT31;53776;47.242;18.674;2022-09-29T15:55:14;16.52;77.14
65858;SHT31;53776;47.242;18.674;2022-09-29T15:57:41;16.45;77.48
65858;SHT31;53776;47.242;18.674;2022-09-29T16:00:40;16.32;77.79
65858;SHT31;53776;47.242;18.674;2022-09-29T16:03:22;16.29;78.39
65858;SHT31;53776;47.242;18.674;2022-09-29T16:08:42;16.07;79.53
65858;SHT31;53776;47.242;18.674;2022-09-29T16:11:18;15.93;79.96
65858;SHT31;53776;47.242;18.674;2022-09-29T16:13:49;15.77;80.30
65858;SHT31;53776;47.242;18.674;2022-09-29T16:16:15;15.66;80.75
65858;SHT31;53776;47.242;18.674;2022-09-29T16:18:42;15.51;81.36
65858;SHT31;53776;47.242;18.674;2022-09-29T16:21:20;15.35;81.70
65858;SHT31;53776;47.242;18.674;2022-09-29T16:26:15;15.15;82.26
65858;SHT31;53776;47.242;18.674;2022-09-29T16:31:38;14.98;82.80
65858;SHT31;53776;47.242;18.674;2022-09-29T16:39:28;14.68;83.56
65858;SHT31;53776;47.242;18.674;2022-09-29T16:41:56;14.59;83.74
65858;SHT31;53776;47.242;18.674;2022-09-29T16:46:56;14.41;84.12
65858;SHT31;53776;47.242;18.674;2022-09-29T16:54:43;14.09;84.43
65858;SHT31;53776;47.242;18.674;2022-09-29T16:57:16;14.02;84.77
65858;SHT31;53776;47.242;18.674;2022-09-29T16:59:44;13.89;84.87
65858;SHT31;53776;47.242;18.674;2022-09-29T17:02:10;13.87;84.99
65858;SHT31;53776;47.242;18.674;2022-09-29T17:04:36;13.82;85.16
65858;SHT31;53776;47.242;18.674;2022-09-29T17:07:01;13.81;85.45
65858;SHT31;53776;47.242;18.674;2022-09-29T17:09:27;13.76;85.45
65858;SHT31;53776;47.242;18.674;2022-09-29T17:11:53;13.74;85.46
65858;SHT31;53776;47.242;18.674;2022-09-29T17:14:18;13.66;85.55
65858;SHT31;53776;47.242;18.674;2022-09-29T17:16:46;13.65;85.54
65858;SHT31;53776;47.242;18.674;2022-09-29T17:19:13;13.54;85.79
65858;SHT31;53776;47.242;18.674;2022-09-29T17:21:41;13.53;85.87
65858;SHT31;53776;47.242;18.674;2022-09-29T17:24:07;13.48;85.92
65858;SHT31;53776;47.242;18.674;2022-09-29T17:26:38;13.41;86.03
65858;SHT31;53776;47.242;18.674;2022-09-29T17:29:24;13.36;86.03
65858;SHT31;53776;47.242;18.674;2022-09-29T17:31:50;13.28;86.02
65858;SHT31;53776;47.242;18.674;2022-09-29T17:34:15;13.21;86.04
65858;SHT31;53776;47.242;18.674;2022-09-29T17:36:42;13.13;85.97
65858;SHT31;53776;47.242;18.674;2022-09-29T17:39:08;13.06;85.91
65858;SHT31;53776;47.242;18.674;2022-09-29T17:41:34;12.95;86.01
65858;SHT31;53776;47.242;18.674;2022-09-29T17:43:59;12.86;86.03
65858;SHT31;53776;47.242;18.674;2022-09-29T17:46:35;12.82;86.18
65858;SHT31;53776;47.242;18.674;2022-09-29T17:49:01;12.82;86.46
65858;SHT31;53776;47.242;18.674;2022-09-29T17:51:26;12.82;86.43
65858;SHT31;53776;47.242;18.674;2022-09-29T17:53:52;12.76;86.44
65858;SHT31;53776;47.242;18.674;2022-09-29T17:56:20;12.69;86.51
65858;SHT31;53776;47.242;18.674;2022-09-29T17:58:50;12.65;86.59
65858;SHT31;53776;47.242;18.674;2022-09-29T18:01:18;12.59;86.68
65858;SHT31;53776;47.242;18.674;2022-09-29T18:03:44;12.56;86.73
65858;SHT31;53776;47.242;18.674;2022-09-29T18:06:17;12.53;86.75
65858;SHT31;53776;47.242;18.674;2022-09-29T18:08:46;12.41;86.85
65858;SHT31;53776;47.242;18.674;2022-09-29T18:11:11;12.38;86.89
65858;SHT31;53776;47.242;18.674;2022-09-29T18:13:37;12.35;86.92
65858;SHT31;53776;47.242;18.674;2022-09-29T18:16:03;12.30;86.94
65858;SHT31;53776;47.242;18.674;2022-09-29T18:18:29;12.22;86.99
65858;SHT31;53776;47.242;18.674;2022-09-29T18:20:54;12.17;87.00
65858;SHT31;53776;47.242;18.674;2022-09-29T18:23:20;12.11;87.03
65858;SHT31;53776;47.242;18.674;2022-09-29T18:25:49;12.10;86.98
65858;SHT31;53776;47.242;18.674;2022-09-29T18:28:16;12.05;87.00
65858;SHT31;53776;47.242;18.674;2022-09-29T18:30:43;11.98;87.06
65858;SHT31;53776;47.242;18.674;2022-09-29T18:33:14;11.90;86.97
65858;SHT31;53776;47.242;18.674;2022-09-29T18:35:45;11.80;86.91
65858;SHT31;53776;47.242;18.674;2022-09-29T18:38:11;11.70;86.94